Time;durP1;ratioP1;P1;durP2;ratioP2;P2;SDS_P1;SDS_P2;PMS_P1;PMS_P2;Temp;Humidity;BMP_temperature;BMP_pressure;BME280_temperature;BME280_humidity;BME280_pressure;Samples;Min_cycle;Max_cycle;Signal;HPM_P1;HPM_P2
2022/07/17 00:01:44;;;;;;;5.72;1.45;;;18.10;89.10;;;;;;5050627;28;20068;-82
2022/07/17 00:04:09;;;;;;;8.15;1.25;;;18.10;89.00;;;;;;5048561;28;20037;-85
2022/07/17 00:06:35;;;;;;;6.13;1.85;;;18.10;88.90;;;;;;5055913;28;20025;-81
2022/07/17 00:09:01;;;;;;;3.47;2.00;;;18.10;89.00;;;;;;5056498;28;20061;-82
2022/07/17 00:11:27;;;;;;;2.78;1.27;;;18.10;88.70;;;;;;5056527;28;20022;-81
2022/07/17 00:13:53;;;;;;;6.68;1.63;;;18.10;88.60;;;;;;5053283;28;20037;-85
2022/07/17 00:16:19;;;;;;;4.70;1.35;;;18.10;88.30;;;;;;5035391;28;20093;-82
2022/07/17 00:18:45;;;;;;;2.40;1.30;;;18.20;88.20;;;;;;5036639;28;20049;-81
2022/07/17 00:21:11;;;;;;;6.07;1.50;;;18.20;87.90;;;;;;5036289;28;20029;-81
2022/07/17 00:23:36;;;;;;;3.63;1.38;;;18.20;88.00;;;;;;5054489;28;20040;-83
2022/07/17 00:26:02;;;;;;;3.92;1.85;;;18.20;87.60;;;;;;5038409;28;20021;-82
2022/07/17 00:28:28;;;;;;;3.08;1.65;;;18.20;87.80;;;;;;5054757;28;20044;-82
2022/07/17 00:30:54;;;;;;;5.13;1.80;;;18.20;87.80;;;;;;5056616;28;20036;-82
2022/07/17 00:33:19;;;;;;;2.88;1.42;;;18.20;87.80;;;;;;5056525;28;20028;-81
2022/07/17 00:35:45;;;;;;;2.83;1.77;;;18.20;87.80;;;;;;5054247;28;20081;-81
2022/07/17 00:38:13;;;;;;;3.72;1.33;;;18.30;87.50;;;;;;5051658;28;20026;-83
2022/07/17 00:40:39;;;;;;;5.47;1.40;;;18.20;87.50;;;;;;5048515;28;20021;-83
2022/07/17 00:43:05;;;;;;;3.67;1.20;;;18.20;87.10;;;;;;5053444;28;20351;-82
2022/07/17 00:45:31;;;;;;;3.15;1.35;;;18.20;87.30;;;;;;5034756;28;20021;-83
2022/07/17 00:47:59;;;;;;;1.30;1.20;;;18.10;87.50;;;;;;5037603;28;20049;-83
2022/07/17 00:50:35;;;;;;;5.28;1.33;;;18.10;87.90;;;;;;5030676;28;20045;-83
2022/07/17 00:53:02;;;;;;;2.65;1.40;;;18.00;87.80;;;;;;5048445;28;20045;-83
2022/07/17 00:55:28;;;;;;;2.00;1.50;;;18.00;87.80;;;;;;5050572;28;20028;-82
2022/07/17 00:57:55;;;;;;;4.38;1.50;;;18.00;87.60;;;;;;5050451;28;20025;-83
2022/07/17 01:00:22;;;;;;;3.10;1.38;;;18.00;88.00;;;;;;5033318;28;20648;-82
2022/07/17 01:02:51;;;;;;;3.10;1.30;;;18.00;88.20;;;;;;5051748;28;20017;-83
2022/07/17 01:05:18;;;;;;;3.88;1.60;;;18.00;88.70;;;;;;5051334;28;20022;-82
2022/07/17 01:07:44;;;;;;;2.60;1.33;;;18.00;88.80;;;;;;5051534;28;20025;-82
2022/07/17 01:10:12;;;;;;;6.93;1.45;;;18.00;89.10;;;;;;5047879;28;20055;-83
2022/07/17 01:12:40;;;;;;;3.90;1.42;;;18.00;89.40;;;;;;5049032;28;20560;-82
2022/07/17 01:15:06;;;;;;;2.17;1.38;;;17.90;89.80;;;;;;5050356;28;20123;-82
2022/07/17 01:17:32;;;;;;;3.03;1.33;;;17.90;89.80;;;;;;5031610;28;20480;-83
2022/07/17 01:19:58;;;;;;;4.13;1.75;;;17.90;90.10;;;;;;5049520;28;20032;-83
2022/07/17 01:22:25;;;;;;;3.80;1.35;;;17.90;90.00;;;;;;5047443;28;20478;-84
2022/07/17 01:24:50;;;;;;;3.67;1.40;;;17.80;90.10;;;;;;5042484;28;20033;-83
2022/07/17 01:27:16;;;;;;;3.65;1.20;;;17.80;90.30;;;;;;5042808;28;20039;-83
2022/07/17 01:29:42;;;;;;;2.90;1.67;;;17.70;90.70;;;;;;5046483;28;20040;-83
2022/07/17 01:32:08;;;;;;;5.40;1.50;;;17.70;91.00;;;;;;5014487;28;20033;-83
2022/07/17 01:34:34;;;;;;;2.90;1.55;;;17.60;91.20;;;;;;5045221;28;20045;-83
2022/07/17 01:37:00;;;;;;;3.40;1.63;;;17.60;91.40;;;;;;5045434;28;20029;-83
2022/07/17 01:42:10;;;;;;;4.32;1.60;;;17.50;91.80;;;;;;5024409;28;20033;-83
2022/07/17 01:44:36;;;;;;;5.72;1.70;;;17.50;92.00;;;;;;5025476;28;20461;-84
2022/07/17 01:47:03;;;;;;;8.40;1.40;;;17.50;92.30;;;;;;5041936;28;20036;-83
2022/07/17 01:49:29;;;;;;;4.60;1.35;;;17.40;92.40;;;;;;5024926;28;20572;-82
2022/07/17 01:51:59;;;;;;;3.40;1.60;;;17.40;92.80;;;;;;5055487;28;20140;-83
2022/07/17 01:54:26;;;;;;;6.57;1.50;;;17.40;92.80;;;;;;5056346;28;20097;-82
2022/07/17 01:56:53;;;;;;;2.45;1.33;;;17.30;93.10;;;;;;5041942;28;20034;-81
2022/07/17 01:59:18;;;;;;;2.45;1.30;;;17.30;93.20;;;;;;5042835;28;20021;-81
2022/07/17 02:01:44;;;;;;;3.50;1.30;;;17.30;93.20;;;;;;5059923;28;20039;-80
2022/07/17 02:04:10;;;;;;;2.03;1.20;;;17.20;93.30;;;;;;5042271;28;20084;-82
2022/07/17 02:06:36;;;;;;;1.80;1.27;;;17.20;93.50;;;;;;5058200;28;20030;-83
2022/07/17 02:09:02;;;;;;;3.55;1.35;;;17.20;93.70;;;;;;5043413;28;20366;-83
2022/07/17 02:11:28;;;;;;;1.67;1.20;;;17.20;93.80;;;;;;5050826;28;20083;-80
2022/07/17 02:13:54;;;;;;;2.92;1.65;;;17.10;94.30;;;;;;5056674;28;20017;-81
2022/07/17 02:16:20;;;;;;;5.78;1.60;;;17.10;94.50;;;;;;5058028;28;20056;-82
2022/07/17 02:18:46;;;;;;;4.30;1.20;;;17.10;94.90;;;;;;5040825;28;20048;-82
2022/07/17 02:21:12;;;;;;;2.35;1.50;;;17.00;94.60;;;;;;5040388;28;20060;-82
2022/07/17 02:23:38;;;;;;;2.53;1.63;;;17.00;94.10;;;;;;5057495;28;20028;-81
2022/07/17 02:26:04;;;;;;;3.40;1.60;;;17.10;94.00;;;;;;5057292;28;20017;-81
2022/07/17 02:28:29;;;;;;;3.72;1.35;;;17.10;93.90;;;;;;5040456;28;20136;-81
2022/07/17 02:30:55;;;;;;;6.03;1.30;;;17.10;93.70;;;;;;5037891;28;20079;-82
2022/07/17 02:33:21;;;;;;;4.05;1.42;;;17.10;93.60;;;;;;5042651;28;20021;-84
2022/07/17 02:35:47;;;;;;;3.30;1.30;;;17.10;93.70;;;;;;5041625;28;20101;-83
2022/07/17 02:38:13;;;;;;;4.65;1.30;;;17.10;93.60;;;;;;5042178;28;20124;-83
2022/07/17 02:40:38;;;;;;;2.03;1.35;;;17.10;93.70;;;;;;5042603;28;20078;-83
2022/07/17 02:43:04;;;;;;;2.95;1.58;;;17.10;93.70;;;;;;5041914;28;20036;-83
2022/07/17 02:45:30;;;;;;;4.07;1.42;;;17.10;93.70;;;;;;5043503;28;20029;-84
2022/07/17 02:47:56;;;;;;;2.88;1.52;;;17.10;93.80;;;;;;5043503;28;20029;-84
2022/07/17 02:50:22;;;;;;;3.10;1.33;;;17.00;93.80;;;;;;5043341;28;20091;-82
2022/07/17 02:52:49;;;;;;;3.20;1.45;;;17.00;93.90;;;;;;5050284;28;20032;-81
2022/07/17 02:55:16;;;;;;;2.45;1.50;;;17.00;94.00;;;;;;5029868;28;20029;-82
2022/07/17 02:57:43;;;;;;;2.75;1.65;;;17.00;94.20;;;;;;5041778;28;20048;-83
2022/07/17 03:00:11;;;;;;;2.95;1.27;;;17.00;94.20;;;;;;5050354;28;20036;-85
2022/07/17 03:02:37;;;;;;;4.38;1.60;;;16.90;94.30;;;;;;5045009;28;20050;-85
2022/07/17 03:05:04;;;;;;;7.72;1.80;;;16.90;94.40;;;;;;5045549;28;20052;-84
2022/07/17 03:07:30;;;;;;;4.15;1.50;;;16.90;94.40;;;;;;5027894;28;20100;-82
2022/07/17 03:09:56;;;;;;;3.28;1.23;;;16.90;94.60;;;;;;5041543;28;20092;-83
2022/07/17 03:12:22;;;;;;;1.75;1.33;;;16.90;94.80;;;;;;5043902;28;20037;-84
2022/07/17 03:14:48;;;;;;;1.95;1.33;;;16.80;94.90;;;;;;5062894;22;20097;-84
2022/07/17 03:17:14;;;;;;;3.55;1.80;;;16.80;95.00;;;;;;5055404;28;20052;-85
2022/07/17 03:19:40;;;;;;;3.40;1.50;;;16.80;95.10;;;;;;5056065;28;20028;-83
2022/07/17 03:22:06;;;;;;;5.05;1.33;;;16.80;95.30;;;;;;5039796;28;20041;-85
2022/07/17 03:24:32;;;;;;;2.63;1.48;;;16.80;95.60;;;;;;5040789;28;20014;-83
2022/07/17 03:26:58;;;;;;;2.78;1.50;;;16.80;96.00;;;;;;5058152;28;20041;-84
2022/07/17 03:29:24;;;;;;;2.35;1.45;;;16.70;96.20;;;;;;5040226;28;20022;-85
2022/07/17 03:31:49;;;;;;;7.95;1.77;;;16.70;96.60;;;;;;5057906;28;20041;-84
2022/07/17 03:34:16;;;;;;;3.00;1.67;;;16.70;99.70;;;;;;5040781;28;20033;-84
2022/07/17 03:36:42;;;;;;;3.88;1.63;;;16.60;99.90;;;;;;5040703;28;20041;-83
2022/07/17 03:39:08;;;;;;;3.53;1.73;;;16.60;99.90;;;;;;5040987;28;20080;-84
2022/07/17 03:41:34;;;;;;;3.17;1.88;;;16.50;99.90;;;;;;5041186;28;20102;-85
2022/07/17 03:44:00;;;;;;;3.53;2.17;;;16.50;99.90;;;;;;5041212;28;20018;-84
2022/07/17 03:46:26;;;;;;;3.30;1.75;;;16.40;99.90;;;;;;5041017;28;20022;-84
2022/07/17 03:48:52;;;;;;;3.85;2.05;;;16.40;99.90;;;;;;5057224;28;20041;-84
2022/07/17 03:51:18;;;;;;;3.45;1.60;;;16.40;99.90;;;;;;5054510;28;20033;-85
2022/07/17 03:53:43;;;;;;;4.45;1.70;;;16.40;99.90;;;;;;5055314;28;20053;-83
2022/07/17 03:56:09;;;;;;;2.17;1.70;;;16.40;99.90;;;;;;5040434;28;20071;-84
2022/07/17 03:58:35;;;;;;;3.72;1.70;;;16.40;99.90;;;;;;5057105;28;20079;-85
2022/07/17 04:01:02;;;;;;;6.03;1.75;;;16.30;99.90;;;;;;5038996;28;20034;-84
2022/07/17 04:03:28;;;;;;;4.85;1.90;;;16.30;99.90;;;;;;5040077;28;20036;-85
2022/07/17 04:05:53;;;;;;;2.55;1.85;;;16.30;99.90;;;;;;5040406;28;20059;-84
2022/07/17 04:08:19;;;;;;;3.97;1.83;;;16.30;99.90;;;;;;5053114;28;20049;-85
2022/07/17 04:10:45;;;;;;;3.28;1.90;;;16.30;99.90;;;;;;5055424;28;20029;-85
2022/07/17 04:13:11;;;;;;;4.43;1.90;;;16.30;99.90;;;;;;5053184;28;20035;-85
2022/07/17 04:15:49;;;;;;;2.97;1.77;;;16.30;99.90;;;;;;5049872;28;20045;-85
2022/07/17 04:18:23;;;;;;;2.78;1.98;;;16.30;99.90;;;;;;5050677;28;20037;-85
2022/07/17 04:20:50;;;;;;;3.05;1.73;;;16.40;99.90;;;;;;5035812;28;20041;-86
2022/07/17 04:23:16;;;;;;;2.95;1.88;;;16.40;99.90;;;;;;5034877;28;20030;-85
2022/07/17 04:25:42;;;;;;;3.40;1.77;;;16.50;99.90;;;;;;5052172;28;20048;-85
2022/07/17 04:28:08;;;;;;;5.78;1.67;;;16.60;99.90;;;;;;5052943;28;20022;-84
2022/07/17 04:30:34;;;;;;;3.42;1.65;;;16.70;99.90;;;;;;5053248;28;20026;-84
2022/07/17 04:33:00;;;;;;;4.05;1.70;;;16.70;99.90;;;;;;5052788;28;20461;-84
2022/07/17 04:35:26;;;;;;;6.25;1.92;;;16.80;99.90;;;;;;5033523;28;20092;-84
2022/07/17 04:37:52;;;;;;;4.82;1.83;;;16.90;99.90;;;;;;5031661;28;20017;-85
2022/07/17 04:40:19;;;;;;;3.72;1.55;;;16.90;99.90;;;;;;5030847;28;20040;-85
2022/07/17 04:42:45;;;;;;;5.25;1.98;;;17.00;99.90;;;;;;5029791;28;20026;-86
2022/07/17 04:45:13;;;;;;;1.95;1.48;;;17.10;99.90;;;;;;5046516;28;20044;-86
2022/07/17 04:47:39;;;;;;;4.65;1.77;;;17.20;99.90;;;;;;5048717;28;20028;-85
2022/07/17 04:50:05;;;;;;;4.70;2.00;;;17.50;99.90;;;;;;5054703;28;20041;-84
2022/07/17 04:52:31;;;;;;;4.30;1.45;;;17.80;99.90;;;;;;5034598;28;20025;-85
2022/07/17 04:54:56;;;;;;;2.97;1.73;;;18.00;99.90;;;;;;5033520;28;20037;-84
2022/07/17 04:57:22;;;;;;;6.97;1.63;;;18.10;99.90;;;;;;5056018;28;20017;-86
2022/07/17 04:59:48;;;;;;;5.28;1.70;;;18.20;99.90;;;;;;5055947;28;20698;-84
2022/07/17 05:02:14;;;;;;;4.05;1.73;;;18.10;99.90;;;;;;5056000;28;20061;-84
2022/07/17 05:04:40;;;;;;;3.35;1.50;;;18.20;99.90;;;;;;5038584;28;20024;-84
2022/07/17 05:07:06;;;;;;;3.08;1.58;;;18.30;99.90;;;;;;5038798;28;20041;-84
2022/07/17 05:09:31;;;;;;;4.47;1.90;;;18.50;99.90;;;;;;5039026;28;20036;-83
2022/07/17 05:11:57;;;;;;;2.47;1.75;;;18.60;99.90;;;;;;5038919;28;20033;-86
2022/07/17 05:14:23;;;;;;;3.75;1.45;;;18.80;99.90;;;;;;5056004;28;20072;-83
2022/07/17 05:16:49;;;;;;;4.13;1.80;;;19.00;99.90;;;;;;5054968;28;20036;-83
2022/07/17 05:19:15;;;;;;;3.95;1.70;;;19.30;99.90;;;;;;5031654;28;20037;-85
2022/07/17 05:21:42;;;;;;;3.97;1.70;;;19.50;99.90;;;;;;5010860;28;20520;-86
2022/07/17 05:24:08;;;;;;;3.15;1.60;;;19.60;99.90;;;;;;5043474;28;20033;-85
2022/07/17 05:26:33;;;;;;;3.40;1.55;;;19.70;99.90;;;;;;5025350;28;20148;-84
2022/07/17 05:28:59;;;;;;;4.05;1.77;;;19.60;99.90;;;;;;5058200;28;20032;-83
2022/07/17 05:31:25;;;;;;;4.43;1.85;;;19.70;99.90;;;;;;5043665;28;20034;-84
2022/07/17 05:33:51;;;;;;;3.70;1.42;;;19.80;99.90;;;;;;5043683;28;20029;-84
2022/07/17 05:36:17;;;;;;;2.40;1.52;;;19.80;99.60;;;;;;5060823;28;20017;-83
2022/07/17 05:38:43;;;;;;;8.10;1.60;;;19.90;98.90;;;;;;5043458;28;20077;-84
2022/07/17 05:41:09;;;;;;;4.18;1.25;;;20.10;98.10;;;;;;5060420;28;20048;-83
2022/07/17 05:43:35;;;;;;;3.17;1.33;;;20.50;97.60;;;;;;5060358;28;20025;-85
2022/07/17 05:46:01;;;;;;;3.10;1.23;;;20.70;96.80;;;;;;5060342;28;20037;-82
2022/07/17 05:48:29;;;;;;;5.65;1.48;;;20.70;96.20;;;;;;5043172;28;20053;-84
2022/07/17 05:50:55;;;;;;;8.68;1.50;;;20.70;95.90;;;;;;5043229;28;20037;-83
2022/07/17 05:53:21;;;;;;;1.42;1.20;;;20.70;95.60;;;;;;5060373;28;20040;-83
2022/07/17 05:55:47;;;;;;;2.97;1.38;;;20.80;95.20;;;;;;5060363;28;20039;-82
2022/07/17 05:58:13;;;;;;;2.72;1.50;;;20.80;94.20;;;;;;5060266;28;20080;-84
2022/07/17 06:00:39;;;;;;;5.18;1.20;;;20.80;94.20;;;;;;5060359;28;20017;-84
2022/07/17 06:03:05;;;;;;;2.72;1.30;;;20.80;94.20;;;;;;5043410;28;20041;-83
2022/07/17 06:05:31;;;;;;;3.55;1.30;;;20.90;93.10;;;;;;5060278;28;20073;-83
2022/07/17 06:07:58;;;;;;;4.95;1.58;;;20.90;93.80;;;;;;5060071;28;20062;-83
2022/07/17 06:10:25;;;;;;;2.15;1.25;;;21.00;93.90;;;;;;5026471;28;20036;-83
2022/07/17 06:12:52;;;;;;;3.85;1.30;;;21.10;93.90;;;;;;5042155;28;20032;-83
2022/07/17 06:15:22;;;;;;;4.30;1.42;;;21.10;93.10;;;;;;5056738;28;20061;-87
2022/07/17 06:17:49;;;;;;;6.57;2.15;;;21.30;93.10;;;;;;5054795;28;20025;-87
2022/07/17 06:20:16;;;;;;;5.40;1.60;;;21.40;92.90;;;;;;5053826;28;20032;-86
2022/07/17 06:22:43;;;;;;;2.20;1.40;;;21.50;92.30;;;;;;5036347;28;20037;-85
2022/07/17 06:25:09;;;;;;;3.60;1.38;;;21.60;92.10;;;;;;5054759;28;20009;-84
2022/07/17 06:27:35;;;;;;;4.47;1.35;;;21.60;91.90;;;;;;5037850;28;20017;-84
2022/07/17 06:30:02;;;;;;;2.13;1.05;;;21.70;91.40;;;;;;5041021;28;20032;-83
2022/07/17 06:32:27;;;;;;;5.45;1.60;;;21.70;90.70;;;;;;5041431;28;20064;-84
2022/07/17 06:34:53;;;;;;;5.95;1.52;;;21.70;90.50;;;;;;5056741;28;20112;-84
2022/07/17 06:37:19;;;;;;;3.33;1.63;;;21.70;90.50;;;;;;5037713;28;20098;-85
2022/07/17 06:39:45;;;;;;;3.40;1.60;;;21.70;90.20;;;;;;5054183;28;20025;-85
2022/07/17 06:42:11;;;;;;;3.75;1.30;;;21.80;89.40;;;;;;5038351;28;20048;-85
2022/07/17 06:44:37;;;;;;;1.63;1.10;;;21.90;89.70;;;;;;5055616;28;20022;-86
2022/07/17 06:47:03;;;;;;;3.35;1.42;;;22.00;88.10;;;;;;5058316;28;20081;-85
2022/07/17 06:49:29;;;;;;;10.30;1.67;;;22.10;89.30;;;;;;5057854;28;20136;-85
2022/07/17 06:51:55;;;;;;;4.65;1.00;;;22.10;86.40;;;;;;5057459;28;20060;-86
2022/07/17 06:54:25;;;;;;;2.42;1.40;;;22.10;86.20;;;;;;5040533;28;20010;-84
2022/07/17 06:56:55;;;;;;;5.28;1.33;;;22.10;84.80;;;;;;5041248;28;20025;-85
2022/07/17 06:59:23;;;;;;;3.40;1.13;;;22.20;84.90;;;;;;5041554;28;20060;-85
2022/07/17 07:01:49;;;;;;;4.43;1.25;;;22.30;82.60;;;;;;5058383;28;20030;-85
2022/07/17 07:04:15;;;;;;;2.40;1.13;;;22.20;81.80;;;;;;5057651;28;20041;-84
2022/07/17 07:06:43;;;;;;;5.32;1.27;;;22.00;81.30;;;;;;5057436;28;20052;-86
2022/07/17 07:09:13;;;;;;;4.07;1.40;;;22.10;79.00;;;;;;5039863;28;20019;-86
2022/07/17 07:11:39;;;;;;;1.10;0.88;;;22.20;78.80;;;;;;5037699;28;20085;-84
2022/07/17 07:14:06;;;;;;;2.47;1.13;;;22.30;78.50;;;;;;5037267;28;20029;-85
2022/07/17 07:16:33;;;;;;;2.55;0.95;;;22.20;76.00;;;;;;5055662;28;20025;-86
2022/07/17 07:18:59;;;;;;;3.00;1.08;;;22.20;74.80;;;;;;5056624;28;20006;-84
2022/07/17 07:21:26;;;;;;;3.05;1.02;;;22.10;75.40;;;;;;5040360;28;20587;-86
2022/07/17 07:23:55;;;;;;;7.32;1.10;;;22.00;77.80;;;;;;5055758;28;20059;-87
2022/07/17 07:26:22;;;;;;;8.23;1.38;;;22.00;76.30;;;;;;5036077;28;20225;-87
2022/07/17 07:28:48;;;;;;;5.32;1.20;;;22.20;76.70;;;;;;5051318;28;20025;-88
2022/07/17 07:31:16;;;;;;;2.70;1.02;;;22.40;75.20;;;;;;5033411;28;20022;-87
2022/07/17 07:33:43;;;;;;;4.45;1.17;;;22.50;73.80;;;;;;5033883;28;20026;-87
2022/07/17 07:36:09;;;;;;;4.60;0.93;;;22.60;72.80;;;;;;5052128;28;20497;-86
2022/07/17 07:38:35;;;;;;;5.93;0.95;;;22.70;72.40;;;;;;5037643;28;20032;-88
2022/07/17 07:41:01;;;;;;;5.05;1.17;;;22.70;73.40;;;;;;5038186;28;20071;-87
2022/07/17 07:43:27;;;;;;;6.25;1.33;;;22.60;72.40;;;;;;5038574;28;20037;-85
2022/07/17 07:45:54;;;;;;;5.20;0.98;;;22.50;71.00;;;;;;5032544;28;20034;-89
2022/07/17 07:48:19;;;;;;;4.53;1.30;;;22.60;71.80;;;;;;5043817;28;20040;-86
2022/07/17 07:50:45;;;;;;;3.97;0.88;;;22.60;71.20;;;;;;5024820;28;20029;-86
2022/07/17 07:53:11;;;;;;;4.57;1.17;;;22.50;70.80;;;;;;5044313;28;20078;-85
2022/07/17 07:55:37;;;;;;;3.03;1.00;;;22.50;70.40;;;;;;5026317;28;20021;-88
2022/07/17 07:58:07;;;;;;;3.08;1.35;;;22.60;70.10;;;;;;5025544;28;20083;-86
2022/07/17 08:00:33;;;;;;;3.88;1.25;;;22.70;70.80;;;;;;5028476;28;20101;-85
2022/07/17 08:02:59;;;;;;;3.67;1.20;;;22.80;71.00;;;;;;5031085;28;20026;-85
2022/07/17 08:05:25;;;;;;;2.42;0.85;;;22.90;70.50;;;;;;5045314;28;20033;-87
2022/07/17 08:07:51;;;;;;;2.38;1.10;;;22.90;69.10;;;;;;5026984;28;20044;-86
2022/07/17 08:10:17;;;;;;;3.15;1.02;;;23.00;69.00;;;;;;5031213;28;20037;-87
2022/07/17 08:12:43;;;;;;;1.05;0.70;;;23.10;67.80;;;;;;5049918;28;20033;-86
2022/07/17 08:15:10;;;;;;;1.92;0.90;;;23.10;68.50;;;;;;5032919;28;20037;-86
2022/07/17 08:17:36;;;;;;;4.78;1.02;;;23.20;68.10;;;;;;5033556;28;20060;-87
2022/07/17 08:20:03;;;;;;;2.35;0.98;;;23.10;68.90;;;;;;5050064;28;20108;-85
2022/07/17 08:22:29;;;;;;;2.88;0.88;;;23.10;67.60;;;;;;5053947;28;20044;-86
2022/07/17 08:24:55;;;;;;;2.35;0.80;;;23.00;66.50;;;;;;5036917;28;20231;-86
2022/07/17 08:27:22;;;;;;;5.85;1.17;;;22.90;66.20;;;;;;5035717;28;20006;-87
2022/07/17 08:29:48;;;;;;;6.22;1.00;;;22.90;67.40;;;;;;5037260;28;20032;-86
2022/07/17 08:32:13;;;;;;;5.28;1.05;;;23.00;67.10;;;;;;5038763;28;20026;-85
2022/07/17 08:34:39;;;;;;;3.38;1.27;;;23.10;67.10;;;;;;5056849;28;20017;-85
2022/07/17 08:37:05;;;;;;;9.50;1.30;;;23.10;68.10;;;;;;5056796;28;20051;-87
2022/07/17 08:39:31;;;;;;;4.90;0.95;;;23.10;67.10;;;;;;5057440;28;20073;-86
2022/07/17 08:41:57;;;;;;;5.75;1.17;;;23.10;67.00;;;;;;5038798;28;20026;-87
2022/07/17 08:44:23;;;;;;;7.05;1.95;;;23.30;67.00;;;;;;5037412;28;20052;-87
2022/07/17 08:46:49;;;;;;;9.88;2.45;;;23.30;67.40;;;;;;5056086;28;20033;-87
2022/07/17 08:49:21;;;;;;;7.65;1.30;;;23.30;67.60;;;;;;5038442;28;20050;-86
2022/07/17 08:51:48;;;;;;;5.07;1.10;;;23.30;67.10;;;;;;5040592;28;20037;-85
2022/07/17 08:54:14;;;;;;;2.70;1.20;;;23.40;67.20;;;;;;5040832;28;20077;-86
2022/07/17 08:56:40;;;;;;;7.53;1.35;;;23.40;67.10;;;;;;5057634;28;20021;-86
2022/07/17 08:59:06;;;;;;;3.70;1.08;;;23.50;67.00;;;;;;5024211;28;20049;-86
2022/07/17 09:01:32;;;;;;;3.83;1.27;;;23.50;66.10;;;;;;5040482;28;20022;-86
2022/07/17 09:04:09;;;;;;;2.55;0.85;;;23.40;66.00;;;;;;5043618;28;20017;-85
2022/07/17 09:06:36;;;;;;;2.60;1.15;;;23.50;66.50;;;;;;5060842;28;20029;-86
2022/07/17 09:09:04;;;;;;;4.55;1.35;;;23.60;66.10;;;;;;5060853;28;20029;-85
2022/07/17 09:11:40;;;;;;;3.17;1.00;;;23.50;65.90;;;;;;5060846;28;20088;-85
2022/07/17 09:16:35;;;;;;;2.22;0.90;;;23.20;67.30;;;;;;5079471;22;20061;-85
2022/07/17 09:19:01;;;;;;;2.60;0.90;;;23.20;67.90;;;;;;5040955;28;20026;-85
2022/07/17 09:21:28;;;;;;;5.25;1.10;;;23.40;68.30;;;;;;5042293;28;20370;-83
2022/07/17 09:24:12;;;;;;;4.45;1.35;;;23.40;67.50;;;;;;5023986;28;20036;-85
2022/07/17 09:26:44;;;;;;;3.58;1.40;;;23.50;67.70;;;;;;5022331;28;20437;-84
2022/07/17 09:29:13;;;;;;;7.50;1.10;;;23.50;67.20;;;;;;5023066;28;20030;-86
2022/07/17 09:31:39;;;;;;;4.13;1.10;;;23.50;67.20;;;;;;5022424;28;20113;-83
2022/07/17 09:34:15;;;;;;;3.15;1.10;;;23.60;66.60;;;;;;5004320;28;20031;-86
2022/07/17 09:36:41;;;;;;;4.30;1.20;;;23.70;66.80;;;;;;5009040;28;20053;-84
2022/07/17 09:39:07;;;;;;;5.85;1.17;;;23.90;67.00;;;;;;5007450;28;20391;-86
2022/07/17 09:41:33;;;;;;;3.03;1.05;;;23.90;67.20;;;;;;5022859;28;20030;-84
2022/07/17 09:44:00;;;;;;;3.88;1.10;;;23.90;66.70;;;;;;5020936;28;20069;-85
2022/07/17 09:46:34;;;;;;;2.25;1.00;;;24.00;66.80;;;;;;5021664;28;20022;-84
2022/07/17 09:49:07;;;;;;;4.70;1.50;;;24.20;65.70;;;;;;5021337;28;20057;-86
2022/07/17 09:51:38;;;;;;;5.15;1.30;;;24.60;65.40;;;;;;5022006;28;20034;-83
2022/07/17 09:54:05;;;;;;;6.55;1.40;;;24.90;65.00;;;;;;5003963;28;20073;-84
2022/07/17 09:56:36;;;;;;;2.50;1.00;;;25.70;64.60;;;;;;5021976;28;20029;-84
2022/07/17 09:59:11;;;;;;;4.22;1.00;;;26.60;63.60;;;;;;5025803;28;20057;-86
2022/07/17 10:01:38;;;;;;;;;;;27.10;61.50;;;;;;5033490;28;20026;-85
2022/07/17 10:04:04;;;;;;;1.38;1.00;;;28.50;60.00;;;;;;5013617;28;19913;-85
2022/07/17 10:06:31;;;;;;;5.15;1.25;;;29.60;58.40;;;;;;5026643;28;20090;-84
2022/07/17 10:08:57;;;;;;;2.75;1.20;;;30.00;57.80;;;;;;5008541;28;20030;-84
2022/07/17 10:11:26;;;;;;;3.95;1.20;;;31.00;56.90;;;;;;5008588;28;20034;-85
2022/07/17 10:13:56;;;;;;;2.80;1.60;;;32.20;55.00;;;;;;5026219;28;20032;-86
2022/07/17 10:16:29;;;;;;;3.03;1.35;;;32.20;54.70;;;;;;5025897;28;20033;-86
2022/07/17 10:18:57;;;;;;;2.88;0.93;;;33.20;52.50;;;;;;5026599;28;20061;-86
2022/07/17 10:21:26;;;;;;;2.85;1.10;;;33.70;51.40;;;;;;5025990;28;20088;-85
2022/07/17 10:23:55;;;;;;;2.58;1.13;;;34.60;49.80;;;;;;5025350;28;20082;-85
2022/07/17 10:26:44;;;;;;;2.97;1.10;;;34.70;49.10;;;;;;4992507;28;20025;-84
2022/07/17 10:29:33;;;;;;;5.78;1.25;;;34.70;49.50;;;;;;5027141;28;20389;-85
2022/07/17 10:32:07;;;;;;;2.40;1.08;;;36.20;48.10;;;;;;5028365;28;20026;-83
2022/07/17 10:34:39;;;;;;;2.78;1.20;;;36.60;46.90;;;;;;4996011;28;20026;-84
2022/07/17 10:37:19;;;;;;;3.75;1.00;;;36.80;46.90;;;;;;5028647;28;20282;-84
2022/07/17 10:40:05;;;;;;;1.38;1.20;;;37.70;45.50;;;;;;5028443;28;20049;-84
2022/07/17 10:42:50;;;;;;;2.30;1.10;;;37.10;44.90;;;;;;5029235;28;20053;-83
2022/07/17 10:45:22;;;;;;;2.03;1.10;;;37.60;43.90;;;;;;5031685;28;20051;-85
2022/07/17 10:48:11;;;;;;;2.80;1.02;;;38.40;42.60;;;;;;5015123;28;20112;-84
2022/07/17 10:50:43;;;;;;;1.80;1.00;;;38.30;40.90;;;;;;5018300;28;20032;-84
2022/07/17 10:53:17;;;;;;;4.47;1.23;;;38.60;41.20;;;;;;5032311;28;20030;-84
2022/07/17 10:55:50;;;;;;;3.40;1.10;;;40.00;40.60;;;;;;5012300;28;20033;-85
2022/07/17 10:58:21;;;;;;;4.40;1.02;;;39.60;39.70;;;;;;5028546;28;20057;-86
2022/07/17 11:01:15;;;;;;;2.13;1.30;;;39.70;39.20;;;;;;5024525;28;20030;-85
2022/07/17 11:03:46;;;;;;;2.90;0.88;;;39.10;39.10;;;;;;5023672;28;20030;-84
2022/07/17 11:06:17;;;;;;;1.75;1.27;;;39.60;39.70;;;;;;5005891;28;20046;-85
2022/07/17 11:08:55;;;;;;;2.22;1.10;;;40.00;39.90;;;;;;5024085;28;20034;-84
2022/07/17 11:11:51;;;;;;;1.77;0.93;;;39.70;40.00;;;;;;5025068;28;20061;-84
2022/07/17 11:14:26;;;;;;;3.58;1.30;;;40.10;39.80;;;;;;4996397;28;20133;-85
2022/07/17 11:16:59;;;;;;;3.05;1.15;;;39.60;39.90;;;;;;5003768;28;20116;-85
2022/07/17 11:19:32;;;;;;;2.60;1.05;;;39.00;40.20;;;;;;5021706;28;20221;-85
2022/07/17 11:22:00;;;;;;;0.98;0.80;;;39.40;39.80;;;;;;5004359;28;20045;-85
2022/07/17 11:24:45;;;;;;;2.67;1.25;;;39.90;39.30;;;;;;5021611;28;20478;-84
2022/07/17 11:27:13;;;;;;;2.78;1.15;;;40.30;37.90;;;;;;5022988;28;20045;-83
2022/07/17 11:29:40;;;;;;;2.30;1.02;;;40.60;37.80;;;;;;5004464;28;20490;-84
2022/07/17 11:32:06;;;;;;;1.85;1.05;;;40.40;37.70;;;;;;5022624;28;20030;-84
2022/07/17 11:34:32;;;;;;;2.20;0.82;;;40.50;37.80;;;;;;5021967;28;20025;-84
2022/07/17 11:37:00;;;;;;;3.72;1.02;;;41.20;37.80;;;;;;5023527;28;20105;-86
2022/07/17 11:39:40;;;;;;;2.50;1.00;;;41.70;37.40;;;;;;5005796;28;20026;-85
2022/07/17 11:42:09;;;;;;;2.05;1.02;;;41.50;37.40;;;;;;5004111;28;20038;-83
2022/07/17 11:44:35;;;;;;;2.78;1.20;;;41.30;37.20;;;;;;5035167;28;20408;-83
2022/07/17 11:47:02;;;;;;;5.32;1.00;;;40.30;37.10;;;;;;5035107;28;20057;-84
2022/07/17 11:49:28;;;;;;;7.18;1.25;;;39.30;38.20;;;;;;5015345;28;20080;-83
2022/07/17 11:52:06;;;;;;;2.00;0.90;;;39.10;38.40;;;;;;5004974;28;20034;-84
2022/07/17 11:54:31;;;;;;;2.42;1.08;;;39.00;38.40;;;;;;5022674;28;20026;-85
2022/07/17 11:56:58;;;;;;;3.00;0.95;;;39.90;38.30;;;;;;5022988;28;20040;-84
2022/07/17 11:59:30;;;;;;;10.35;1.05;;;41.50;37.60;;;;;;5013742;28;20049;-83
2022/07/17 12:01:56;;;;;;;2.28;0.93;;;40.90;37.60;;;;;;5013380;28;20030;-84
2022/07/17 12:04:22;;;;;;;2.70;1.05;;;41.10;37.70;;;;;;5027579;28;20037;-84
2022/07/17 12:07:03;;;;;;;2.97;1.05;;;41.80;37.50;;;;;;5019288;28;20018;-84
2022/07/17 12:09:36;;;;;;;4.03;1.20;;;41.50;37.50;;;;;;5037175;28;20029;-83
2022/07/17 12:12:02;;;;;;;4.90;1.25;;;41.90;37.50;;;;;;5037964;28;20094;-85
2022/07/17 12:14:29;;;;;;;2.00;1.02;;;41.40;37.60;;;;;;5019744;28;20077;-85
2022/07/17 12:17:03;;;;;;;4.32;1.40;;;41.70;37.00;;;;;;5020522;28;20034;-83
2022/07/17 12:19:29;;;;;;;2.42;1.20;;;41.20;36.30;;;;;;5020956;28;20034;-86
2022/07/17 12:22:03;;;;;;;2.47;1.23;;;41.40;36.00;;;;;;5023471;28;20022;-83
2022/07/17 12:24:38;;;;;;;2.80;0.82;;;41.50;36.00;;;;;;5015868;28;20064;-85
2022/07/17 12:27:11;;;;;;;3.00;0.95;;;41.70;35.90;;;;;;5036346;28;20068;-83
2022/07/17 12:29:37;;;;;;;3.57;0.90;;;41.90;35.90;;;;;;5037167;28;20029;-85
2022/07/17 12:32:14;;;;;;;2.97;1.05;;;42.70;35.80;;;;;;5003643;28;20018;-84
2022/07/17 12:34:46;;;;;;;2.03;0.80;;;42.70;35.70;;;;;;5020529;28;20034;-84
2022/07/17 12:37:14;;;;;;;4.78;1.00;;;42.80;35.80;;;;;;5037677;28;20037;-85
2022/07/17 12:39:40;;;;;;;3.38;1.08;;;43.00;35.60;;;;;;5041080;28;20045;-84
2022/07/17 12:42:07;;;;;;;3.80;0.93;;;43.00;35.50;;;;;;5041079;28;20029;-86
2022/07/17 12:44:33;;;;;;;4.15;1.05;;;43.10;35.20;;;;;;5040943;28;20014;-85
2022/07/17 12:46:59;;;;;;;2.05;1.00;;;43.30;34.90;;;;;;5038475;28;20026;-85
2022/07/17 12:49:25;;;;;;;3.30;0.93;;;43.20;35.10;;;;;;5011978;28;20022;-83
2022/07/17 12:51:51;;;;;;;3.78;1.15;;;42.00;36.10;;;;;;5031528;28;20037;-85
2022/07/17 12:54:17;;;;;;;1.98;1.00;;;42.30;36.60;;;;;;5035297;28;20026;-83
2022/07/17 12:56:43;;;;;;;1.92;1.02;;;42.60;35.40;;;;;;5034349;28;20489;-85